createdAt,value
2023-05-13T00:00:41.712Z,100.00
2023-05-13T00:03:11.110Z,100.00
2023-05-13T00:05:40.604Z,100.00
2023-05-13T00:08:09.926Z,100.00
2023-05-13T00:10:39.268Z,100.00
2023-05-13T00:13:08.548Z,100.00
2023-05-13T00:15:39.054Z,100.00
2023-05-13T00:18:08.499Z,100.00
2023-05-13T00:20:37.738Z,100.00
2023-05-13T00:23:08.056Z,100.00
2023-05-13T00:25:37.181Z,100.00
2023-05-13T00:28:06.499Z,100.00
2023-05-13T00:30:35.693Z,100.00
2023-05-13T00:33:07.772Z,100.00
2023-05-13T00:35:37.126Z,100.00
2023-05-13T00:38:06.168Z,100.00
2023-05-13T00:40:38.500Z,100.00
2023-05-13T00:43:07.773Z,100.00
2023-05-13T00:45:38.595Z,100.00
2023-05-13T00:48:10.422Z,100.00
2023-05-13T00:50:42.446Z,100.00
2023-05-13T00:53:11.876Z,100.00
2023-05-13T00:55:44.413Z,100.00
2023-05-13T00:58:15.007Z,100.00
2023-05-13T01:00:53.468Z,100.00
2023-05-13T01:03:31.089Z,100.00
2023-05-13T01:06:10.249Z,100.00
2023-05-13T01:08:45.712Z,100.00
2023-05-13T01:11:19.041Z,100.00
2023-05-13T01:13:51.158Z,100.00
2023-05-13T01:16:26.845Z,100.00
2023-05-13T01:19:03.624Z,100.00
2023-05-13T01:21:37.925Z,100.00
2023-05-13T01:24:07.886Z,100.00
2023-05-13T01:26:37.123Z,100.00
2023-05-13T01:29:06.555Z,100.00
2023-05-13T01:31:36.162Z,100.00
2023-05-13T01:34:07.303Z,100.00
2023-05-13T01:36:38.036Z,100.00
2023-05-13T01:39:08.728Z,100.00
2023-05-13T01:41:37.985Z,100.00
2023-05-13T01:44:07.192Z,100.00
2023-05-13T01:46:36.241Z,100.00
2023-05-13T01:49:05.331Z,100.00
2023-05-13T01:51:34.377Z,100.00
2023-05-13T01:54:05.080Z,100.00
2023-05-13T01:56:40.159Z,100.00
2023-05-13T01:59:09.642Z,100.00
2023-05-13T02:01:40.754Z,100.00
2023-05-13T02:04:09.739Z,100.00
2023-05-13T02:06:39.056Z,100.00
2023-05-13T02:09:09.590Z,100.00
2023-05-13T02:11:41.835Z,100.00
2023-05-13T02:14:11.006Z,100.00
2023-05-13T02:16:40.717Z,100.00
2023-05-13T02:19:10.210Z,100.00
2023-05-13T02:21:39.542Z,100.00
2023-05-13T02:24:11.562Z,100.00
2023-05-13T02:26:41.838Z,100.00
2023-05-13T02:29:11.057Z,100.00
2023-05-13T02:31:41.418Z,100.00
2023-05-13T02:34:11.124Z,100.00
2023-05-13T02:36:40.206Z,100.00
2023-05-13T02:39:10.803Z,100.00
2023-05-13T02:41:40.473Z,100.00
2023-05-13T02:44:09.516Z,100.00
2023-05-13T02:46:38.674Z,100.00
2023-05-13T02:49:07.698Z,100.00
2023-05-13T02:51:36.846Z,100.00
2023-05-13T02:54:07.034Z,100.00
2023-05-13T02:56:37.658Z,100.00
2023-05-13T02:59:07.033Z,100.00
2023-05-13T03:01:36.270Z,100.00
2023-05-13T03:04:05.766Z,100.00
2023-05-13T03:06:34.821Z,100.00
2023-05-13T03:09:03.787Z,100.00
2023-05-13T03:11:32.949Z,100.00
2023-05-13T03:14:03.479Z,100.00
2023-05-13T03:16:32.739Z,100.00
2023-05-13T03:19:02.030Z,100.00
2023-05-13T03:21:31.050Z,100.00
2023-05-13T03:24:00.365Z,100.00
2023-05-13T03:26:29.459Z,100.00
2023-05-13T03:28:59.043Z,100.00
2023-05-13T03:31:29.956Z,100.00
2023-05-13T03:34:01.197Z,100.00
2023-05-13T03:36:32.600Z,100.00
2023-05-13T03:39:02.268Z,100.00
2023-05-13T03:41:32.502Z,100.00
2023-05-13T03:44:02.403Z,100.00
2023-05-13T03:46:34.264Z,100.00
2023-05-13T03:49:03.529Z,100.00
2023-05-13T03:51:34.435Z,100.00
2023-05-13T03:54:03.993Z,100.00
2023-05-13T03:56:33.099Z,100.00
2023-05-13T03:59:04.049Z,100.00
2023-05-13T04:01:36.415Z,100.00
2023-05-13T04:04:05.835Z,100.00
2023-05-13T04:06:34.898Z,100.00
2023-05-13T04:09:06.278Z,100.00
2023-05-13T04:11:35.534Z,100.00
2023-05-13T04:14:04.577Z,100.00
2023-05-13T04:16:35.363Z,100.00
2023-05-13T04:19:05.421Z,100.00
2023-05-13T04:21:34.698Z,100.00
2023-05-13T04:24:03.761Z,100.00
2023-05-13T04:26:32.852Z,100.00
2023-05-13T04:29:01.946Z,100.00
2023-05-13T04:31:31.284Z,100.00
2023-05-13T04:34:02.045Z,100.00
2023-05-13T04:36:31.748Z,100.00
2023-05-13T04:39:00.920Z,100.00
2023-05-13T04:41:30.529Z,100.00
2023-05-13T04:43:59.617Z,100.00
2023-05-13T04:46:28.766Z,100.00
2023-05-13T04:49:02.532Z,100.00
2023-05-13T04:51:32.896Z,100.00
2023-05-13T04:54:02.822Z,100.00
2023-05-13T04:56:31.987Z,100.00
2023-05-13T04:59:01.353Z,100.00
2023-05-13T05:01:30.755Z,100.00
2023-05-13T05:04:01.639Z,100.00
2023-05-13T05:06:31.647Z,100.00
2023-05-13T05:09:01.136Z,100.00
2023-05-13T05:11:30.380Z,100.00
2023-05-13T05:13:59.518Z,100.00
2023-05-13T05:16:28.773Z,100.00
2023-05-13T05:18:59.981Z,100.00
2023-05-13T05:21:30.921Z,100.00
2023-05-13T05:24:02.148Z,100.00
2023-05-13T05:26:31.451Z,100.00
2023-05-13T05:29:00.610Z,100.00
2023-05-13T05:31:30.649Z,100.00
2023-05-13T05:34:03.779Z,100.00
2023-05-13T05:36:35.495Z,100.00
2023-05-13T05:39:06.956Z,100.00
2023-05-13T05:41:38.760Z,100.00
2023-05-13T05:44:08.742Z,100.00
2023-05-13T05:46:38.501Z,100.00
2023-05-13T05:49:09.631Z,100.00
2023-05-13T05:51:40.939Z,100.00
2023-05-13T05:54:10.869Z,100.00
2023-05-13T05:56:41.250Z,100.00
2023-05-13T05:59:10.436Z,100.00
2023-05-13T06:01:39.452Z,100.00
2023-05-13T06:04:09.129Z,100.00
2023-05-13T06:06:39.842Z,100.00
2023-05-13T06:09:11.351Z,100.00
2023-05-13T06:11:40.671Z,100.00
2023-05-13T06:14:09.897Z,100.00
2023-05-13T06:16:39.096Z,100.00
2023-05-13T06:19:14.343Z,100.00
2023-05-13T06:21:45.296Z,100.00
2023-05-13T06:24:15.976Z,100.00
2023-05-13T06:26:45.707Z,100.00
2023-05-13T06:29:16.528Z,100.00
2023-05-13T06:31:45.680Z,100.00
2023-05-13T06:34:16.904Z,100.00
2023-05-13T06:36:49.939Z,100.00
2023-05-13T06:39:20.748Z,100.00
2023-05-13T06:41:50.086Z,100.00
2023-05-13T06:44:19.469Z,100.00
2023-05-13T06:46:49.425Z,100.00
2023-05-13T06:49:19.827Z,100.00
2023-05-13T06:51:49.426Z,100.00
2023-05-13T06:54:20.036Z,100.00
2023-05-13T06:56:49.376Z,100.00
2023-05-13T06:59:18.426Z,100.00
2023-05-13T07:01:47.541Z,100.00
2023-05-13T07:04:17.254Z,100.00
2023-05-13T07:06:49.422Z,100.00
2023-05-13T07:09:20.501Z,100.00
2023-05-13T07:11:49.637Z,100.00
2023-05-13T07:14:18.814Z,100.00
2023-05-13T07:16:48.019Z,100.00
2023-05-13T07:19:17.337Z,100.00
2023-05-13T07:21:46.453Z,100.00
2023-05-13T07:24:15.896Z,100.00
2023-05-13T07:26:46.429Z,100.00
2023-05-13T07:29:15.688Z,100.00
2023-05-13T07:31:44.753Z,100.00
2023-05-13T07:34:14.250Z,100.00
2023-05-13T07:36:43.423Z,100.00
2023-05-13T07:39:12.553Z,100.00
2023-05-13T07:41:45.824Z,100.00
2023-05-13T07:44:15.627Z,100.00
2023-05-13T07:46:44.975Z,100.00
2023-05-13T07:49:14.177Z,100.00
2023-05-13T07:51:43.346Z,100.00
2023-05-13T07:54:12.626Z,100.00
2023-05-13T07:56:44.444Z,100.00
2023-05-13T07:59:15.202Z,100.00
2023-05-13T08:01:46.935Z,100.00
2023-05-13T08:04:16.476Z,100.00
2023-05-13T08:06:47.146Z,100.00
2023-05-13T08:09:16.432Z,100.00
2023-05-13T08:11:45.768Z,100.00
2023-05-13T08:14:16.496Z,100.00
2023-05-13T08:16:45.764Z,100.00
2023-05-13T08:19:18.616Z,100.00
2023-05-13T08:21:47.843Z,100.00
2023-05-13T08:24:17.253Z,100.00
2023-05-13T08:26:46.429Z,100.00
2023-05-13T08:29:17.252Z,100.00
2023-05-13T08:31:46.594Z,100.00
2023-05-13T08:34:15.936Z,100.00
2023-05-13T08:36:45.262Z,100.00
2023-05-13T08:39:14.866Z,100.00
2023-05-13T08:41:46.063Z,100.00
2023-05-13T08:44:20.472Z,100.00
2023-05-13T08:47:02.199Z,100.00
2023-05-13T08:49:31.711Z,100.00
2023-05-13T08:52:00.960Z,100.00
2023-05-13T08:54:31.338Z,100.00
2023-05-13T08:57:00.697Z,100.00
2023-05-13T08:59:31.332Z,100.00
2023-05-13T09:02:05.236Z,100.00
2023-05-13T09:04:37.867Z,100.00
2023-05-13T09:07:08.133Z,100.00
2023-05-13T09:09:37.580Z,100.00
2023-05-13T09:12:07.699Z,100.00
2023-05-13T09:14:39.344Z,100.00
2023-05-13T09:17:09.140Z,100.00
2023-05-13T09:19:38.546Z,100.00
2023-05-13T09:22:19.051Z,100.00
2023-05-13T09:24:56.066Z,100.00
2023-05-13T09:27:38.572Z,100.00
2023-05-13T09:30:12.112Z,100.00
2023-05-13T09:32:42.604Z,100.00
2023-05-13T09:35:19.538Z,100.00
2023-05-13T09:37:50.851Z,100.00
2023-05-13T09:40:20.253Z,100.00
2023-05-13T09:42:49.543Z,100.00
2023-05-13T09:45:20.323Z,100.00
2023-05-13T09:47:53.911Z,100.00
2023-05-13T09:50:24.130Z,100.00
2023-05-13T09:52:56.077Z,100.00
2023-05-13T09:55:25.454Z,100.00
2023-05-13T09:57:55.214Z,100.00
2023-05-13T10:00:32.801Z,100.00
2023-05-13T10:03:03.653Z,100.00
2023-05-13T10:05:33.703Z,100.00
2023-05-13T10:08:04.053Z,100.00
2023-05-13T10:10:36.262Z,100.00
2023-05-13T10:13:08.077Z,100.00
2023-05-13T10:15:48.121Z,100.00
2023-05-13T10:18:18.748Z,100.00
2023-05-13T10:20:53.244Z,100.00
2023-05-13T10:23:24.965Z,100.00
2023-05-13T10:25:56.102Z,100.00
2023-05-13T10:28:28.389Z,100.00
2023-05-13T10:30:59.140Z,100.00
2023-05-13T10:33:29.903Z,100.00
2023-05-13T10:36:18.810Z,100.00
2023-05-13T10:39:05.173Z,100.00
2023-05-13T10:42:10.233Z,100.00
2023-05-13T10:44:39.632Z,100.00
2023-05-13T10:47:12.630Z,100.00
2023-05-13T10:49:42.066Z,100.00
2023-05-13T10:52:15.486Z,100.00
2023-05-13T10:55:02.726Z,100.00
2023-05-13T10:57:38.820Z,100.00
2023-05-13T11:00:16.029Z,100.00
2023-05-13T11:02:47.213Z,100.00
2023-05-13T11:05:21.871Z,100.00
2023-05-13T11:07:57.909Z,100.00
2023-05-13T11:10:31.555Z,100.00
2023-05-13T11:13:25.047Z,100.00
2023-05-13T11:15:54.371Z,100.00
2023-05-13T11:18:32.769Z,100.00
2023-05-13T11:21:06.042Z,100.00
2023-05-13T11:23:51.699Z,100.00
2023-05-13T11:26:21.663Z,100.00
2023-05-13T11:29:01.521Z,100.00
2023-05-13T11:31:45.214Z,100.00
2023-05-13T11:34:17.766Z,100.00
2023-05-13T11:36:50.637Z,100.00
2023-05-13T11:39:21.821Z,100.00
2023-05-13T11:41:52.078Z,100.00
2023-05-13T11:44:23.024Z,100.00
2023-05-13T11:46:54.346Z,100.00
2023-05-13T11:49:40.471Z,100.00
2023-05-13T11:52:11.962Z,100.00
2023-05-13T11:54:53.051Z,100.00
2023-05-13T11:57:24.590Z,99.50
2023-05-13T11:59:59.077Z,96.55
2023-05-13T12:02:30.249Z,98.15
2023-05-13T12:05:04.748Z,97.02
2023-05-13T12:07:35.869Z,91.80
2023-05-13T12:10:06.595Z,86.53
2023-05-13T12:12:40.210Z,85.04
2023-05-13T12:15:14.299Z,85.69
2023-05-13T12:17:47.620Z,85.21
2023-05-13T12:20:20.112Z,83.08
2023-05-13T12:22:54.101Z,79.70
2023-05-13T12:25:42.463Z,82.54
2023-05-13T12:28:13.491Z,86.60
2023-05-13T12:30:45.181Z,87.14
2023-05-13T12:33:18.210Z,91.38
2023-05-13T12:35:56.087Z,89.54
2023-05-13T12:38:25.988Z,91.92
2023-05-13T12:40:56.060Z,95.29
2023-05-13T12:43:25.143Z,95.76
2023-05-13T12:45:56.796Z,100.00
2023-05-13T12:48:27.348Z,100.00
2023-05-13T12:50:59.591Z,96.37
2023-05-13T12:53:29.936Z,96.96
2023-05-13T12:55:59.215Z,96.39
2023-05-13T12:58:30.930Z,93.71
2023-05-13T13:01:00.421Z,89.61
2023-05-13T13:03:29.798Z,86.48
2023-05-13T13:06:01.016Z,88.95
2023-05-13T13:08:36.265Z,91.00
2023-05-13T13:11:06.394Z,93.04
2023-05-13T13:13:39.361Z,91.33
2023-05-13T13:16:09.645Z,93.72
2023-05-13T13:18:44.388Z,100.00
2023-05-13T13:21:15.074Z,96.89
2023-05-13T13:23:44.241Z,95.67
2023-05-13T13:26:15.810Z,96.73
2023-05-13T13:28:47.777Z,94.66
2023-05-13T13:31:17.103Z,91.93
2023-05-13T13:33:46.197Z,92.04
2023-05-13T13:36:17.230Z,90.78
2023-05-13T13:38:46.570Z,90.19
2023-05-13T13:41:15.931Z,86.82
2023-05-13T13:43:45.234Z,88.70
2023-05-13T13:46:14.417Z,87.38
2023-05-13T13:48:52.815Z,89.15
2023-05-13T13:51:26.287Z,87.99
2023-05-13T13:53:55.560Z,85.51
2023-05-13T13:56:27.370Z,86.43
2023-05-13T13:58:56.590Z,89.58
2023-05-13T14:01:26.050Z,88.43
2023-05-13T14:04:12.652Z,86.46
2023-05-13T14:06:43.975Z,87.80
2023-05-13T14:09:13.240Z,84.01
2023-05-13T14:11:45.041Z,88.04
2023-05-13T14:14:14.514Z,90.03
2023-05-13T14:16:43.960Z,91.58
2023-05-13T14:19:18.249Z,92.08
2023-05-13T14:21:48.971Z,89.86
2023-05-13T14:24:18.253Z,87.18
2023-05-13T14:26:52.641Z,88.90
2023-05-13T14:29:24.308Z,88.06
2023-05-13T14:31:53.668Z,87.72
2023-05-13T14:34:23.489Z,87.02
2023-05-13T14:36:54.422Z,88.46
2023-05-13T14:39:23.874Z,89.95
2023-05-13T14:41:53.045Z,88.19
2023-05-13T14:44:22.474Z,88.14
2023-05-13T14:46:52.172Z,88.97
2023-05-13T14:49:24.093Z,92.76
2023-05-13T14:51:54.867Z,90.42
2023-05-13T14:54:27.247Z,90.91
2023-05-13T14:56:59.703Z,89.92
2023-05-13T14:59:29.688Z,87.56
2023-05-13T15:01:59.197Z,87.69
2023-05-13T15:04:28.292Z,87.80
2023-05-13T15:07:01.219Z,88.82
2023-05-13T15:09:30.807Z,87.93
2023-05-13T15:12:00.159Z,90.43
2023-05-13T15:14:29.568Z,90.12
2023-05-13T15:16:59.032Z,90.25
2023-05-13T15:19:28.498Z,92.75
2023-05-13T15:21:57.855Z,92.72
2023-05-13T15:24:28.518Z,92.02
2023-05-13T15:26:57.816Z,92.25
2023-05-13T15:29:27.112Z,91.80
2023-05-13T15:31:56.266Z,91.74
2023-05-13T15:34:27.897Z,92.29
2023-05-13T15:36:57.040Z,92.35
2023-05-13T15:39:27.728Z,92.69
2023-05-13T15:42:06.202Z,89.88
2023-05-13T15:44:35.453Z,88.77
2023-05-13T15:47:06.357Z,90.12
2023-05-13T15:49:39.260Z,91.46
2023-05-13T15:52:11.643Z,93.13
2023-05-13T15:54:42.392Z,92.08
2023-05-13T15:57:11.885Z,90.46
2023-05-13T15:59:40.958Z,90.48
2023-05-13T16:02:13.333Z,92.07
2023-05-13T16:04:42.847Z,92.06
2023-05-13T16:07:12.294Z,92.27
2023-05-13T16:09:43.061Z,92.75
2023-05-13T16:12:12.322Z,96.39
2023-05-13T16:14:42.000Z,96.76
2023-05-13T16:17:15.242Z,99.63
2023-05-13T16:19:44.722Z,100.00
2023-05-13T16:22:26.844Z,100.00
2023-05-13T16:24:59.679Z,100.00
2023-05-13T16:27:29.787Z,100.00
2023-05-13T16:30:00.382Z,100.00
2023-05-13T16:32:36.745Z,100.00
2023-05-13T16:35:06.982Z,100.00
2023-05-13T16:37:42.166Z,100.00
2023-05-13T16:40:14.423Z,100.00
2023-05-13T16:42:43.733Z,100.00
2023-05-13T16:45:13.132Z,100.00
2023-05-13T16:47:42.544Z,100.00
2023-05-13T16:50:12.448Z,100.00
2023-05-13T16:52:41.752Z,100.00
2023-05-13T16:55:12.991Z,100.00
2023-05-13T16:57:42.238Z,100.00
2023-05-13T17:00:12.740Z,100.00
2023-05-13T17:02:43.004Z,100.00
2023-05-13T17:05:15.354Z,100.00
2023-05-13T17:07:44.549Z,100.00
2023-05-13T17:10:15.144Z,100.00
2023-05-13T17:12:44.419Z,100.00
2023-05-13T17:15:14.033Z,100.00
2023-05-13T17:17:45.643Z,100.00
2023-05-13T17:20:15.101Z,100.00
2023-05-13T17:22:47.769Z,100.00
2023-05-13T17:25:18.585Z,100.00
2023-05-13T17:27:53.257Z,100.00
2023-05-13T17:30:23.232Z,100.00
2023-05-13T17:32:55.667Z,100.00
2023-05-13T17:35:25.191Z,100.00
2023-05-13T17:37:54.379Z,100.00
2023-05-13T17:40:27.724Z,100.00
2023-05-13T17:42:57.069Z,100.00
2023-05-13T17:45:26.486Z,100.00
2023-05-13T17:47:55.874Z,100.00
2023-05-13T17:50:25.257Z,100.00
2023-05-13T17:52:54.471Z,100.00
2023-05-13T17:55:23.793Z,100.00
2023-05-13T17:57:57.696Z,100.00
2023-05-13T18:00:32.799Z,100.00
2023-05-13T18:03:02.347Z,100.00
2023-05-13T18:05:31.618Z,100.00
2023-05-13T18:08:01.124Z,100.00
2023-05-13T18:10:30.410Z,100.00
2023-05-13T18:13:01.010Z,100.00
2023-05-13T18:15:30.668Z,100.00
2023-05-13T18:18:03.872Z,100.00
2023-05-13T18:20:33.512Z,100.00
2023-05-13T18:23:02.955Z,100.00
2023-05-13T18:25:40.087Z,100.00
2023-05-13T18:28:27.665Z,100.00
2023-05-13T18:30:57.278Z,100.00
2023-05-13T18:33:27.414Z,100.00
2023-05-13T18:35:57.125Z,100.00
2023-05-13T18:38:26.812Z,100.00
2023-05-13T18:40:56.033Z,100.00
2023-05-13T18:43:29.960Z,100.00
2023-05-13T18:45:59.548Z,100.00
2023-05-13T18:48:29.097Z,100.00
2023-05-13T18:51:00.981Z,100.00
2023-05-13T18:53:30.215Z,100.00
2023-05-13T18:55:59.951Z,100.00
2023-05-13T18:58:36.292Z,100.00
2023-05-13T19:01:05.791Z,100.00
2023-05-13T19:03:35.099Z,100.00
2023-05-13T19:06:04.602Z,100.00
2023-05-13T19:08:33.955Z,100.00
2023-05-13T19:11:03.903Z,100.00
2023-05-13T19:13:46.125Z,100.00
2023-05-13T19:16:20.073Z,100.00
2023-05-13T19:18:50.082Z,100.00
2023-05-13T19:21:24.033Z,100.00
2023-05-13T19:23:53.569Z,100.00
2023-05-13T19:26:23.018Z,100.00
2023-05-13T19:28:55.511Z,100.00
2023-05-13T19:31:32.617Z,100.00
2023-05-13T19:34:03.224Z,100.00
2023-05-13T19:36:43.922Z,100.00
2023-05-13T19:39:13.722Z,100.00
2023-05-13T19:41:43.143Z,100.00
2023-05-13T19:44:12.940Z,100.00
2023-05-13T19:46:47.377Z,100.00
2023-05-13T19:49:16.877Z,100.00
2023-05-13T19:51:46.265Z,100.00
2023-05-13T19:54:18.204Z,100.00
2023-05-13T19:56:50.980Z,100.00
2023-05-13T19:59:23.490Z,100.00
2023-05-13T20:01:54.519Z,100.00
2023-05-13T20:04:23.897Z,100.00
2023-05-13T20:06:53.261Z,100.00
2023-05-13T20:09:22.582Z,100.00
2023-05-13T20:11:51.687Z,100.00
2023-05-13T20:14:25.198Z,100.00
2023-05-13T20:16:56.494Z,100.00
2023-05-13T20:19:26.080Z,100.00
2023-05-13T20:21:57.672Z,100.00
2023-05-13T20:24:27.272Z,100.00
2023-05-13T20:26:56.490Z,100.00
2023-05-13T20:29:25.690Z,100.00
2023-05-13T20:31:56.269Z,100.00
2023-05-13T20:34:25.547Z,100.00
2023-05-13T20:36:54.564Z,100.00
2023-05-13T20:39:24.218Z,100.00
2023-05-13T20:41:53.698Z,100.00
2023-05-13T20:44:22.975Z,100.00
2023-05-13T20:46:52.778Z,100.00
2023-05-13T20:49:23.430Z,100.00
2023-05-13T20:51:52.559Z,100.00
2023-05-13T20:54:21.615Z,100.00
2023-05-13T20:56:50.838Z,100.00
2023-05-13T20:59:20.065Z,100.00
2023-05-13T21:01:49.538Z,100.00
2023-05-13T21:04:18.879Z,100.00
2023-05-13T21:06:50.012Z,100.00
2023-05-13T21:09:19.156Z,100.00
2023-05-13T21:11:48.193Z,100.00
2023-05-13T21:14:17.232Z,100.00
2023-05-13T21:16:46.453Z,100.00
2023-05-13T21:19:21.762Z,100.00
2023-05-13T21:21:52.921Z,100.00
2023-05-13T21:24:22.141Z,100.00
2023-05-13T21:26:51.212Z,100.00
2023-05-13T21:29:20.451Z,100.00
2023-05-13T21:31:49.604Z,100.00
2023-05-13T21:34:18.720Z,100.00
2023-05-13T21:36:47.970Z,100.00
2023-05-13T21:39:18.426Z,100.00
2023-05-13T21:41:48.013Z,100.00
2023-05-13T21:44:17.168Z,100.00
2023-05-13T21:46:46.384Z,100.00
2023-05-13T21:49:15.394Z,100.00
2023-05-13T21:51:44.491Z,100.00
2023-05-13T21:54:13.634Z,100.00
2023-05-13T21:56:44.201Z,100.00
2023-05-13T21:59:13.560Z,100.00
2023-05-13T22:01:42.991Z,100.00
2023-05-13T22:04:12.056Z,100.00
2023-05-13T22:06:41.337Z,100.00
2023-05-13T22:09:10.330Z,100.00
2023-05-13T22:11:39.464Z,100.00
2023-05-13T22:14:10.003Z,100.00
2023-05-13T22:16:39.282Z,100.00
2023-05-13T22:19:08.509Z,100.00
2023-05-13T22:21:37.982Z,100.00
2023-05-13T22:24:08.488Z,100.00
2023-05-13T22:26:37.727Z,100.00
2023-05-13T22:29:06.871Z,100.00
2023-05-13T22:31:37.599Z,100.00
2023-05-13T22:34:06.726Z,100.00
2023-05-13T22:36:36.062Z,100.00
2023-05-13T22:39:05.205Z,100.00
2023-05-13T22:41:34.239Z,100.00
2023-05-13T22:44:03.377Z,100.00
2023-05-13T22:46:32.488Z,100.00
2023-05-13T22:49:03.028Z,100.00
2023-05-13T22:51:32.409Z,100.00
2023-05-13T22:54:01.575Z,100.00
2023-05-13T22:56:30.623Z,100.00
2023-05-13T22:59:02.703Z,100.00
2023-05-13T23:01:32.047Z,100.00
2023-05-13T23:04:02.817Z,100.00
2023-05-13T23:06:31.975Z,100.00
2023-05-13T23:09:01.086Z,100.00
2023-05-13T23:11:30.240Z,100.00
2023-05-13T23:13:59.289Z,100.00
2023-05-13T23:16:28.460Z,100.00
2023-05-13T23:18:57.669Z,100.00
2023-05-13T23:21:28.489Z,100.00
2023-05-13T23:23:58.127Z,100.00
2023-05-13T23:26:27.228Z,100.00
2023-05-13T23:28:56.298Z,100.00
2023-05-13T23:31:25.374Z,100.00
2023-05-13T23:33:54.508Z,100.00
2023-05-13T23:36:23.536Z,100.00
2023-05-13T23:38:54.060Z,100.00
2023-05-13T23:41:23.253Z,100.00
2023-05-13T23:43:52.506Z,100.00
2023-05-13T23:46:21.949Z,100.00
2023-05-13T23:48:51.142Z,100.00
2023-05-13T23:51:20.325Z,100.00
2023-05-13T23:53:49.848Z,100.00
2023-05-13T23:56:20.352Z,100.00
2023-05-13T23:58:49.519Z,100.00
